createdAt,value
2018-03-31T00:00:50.722Z,87.31
2018-03-31T00:03:19.086Z,87.23
2018-03-31T00:05:47.440Z,87.43
2018-03-31T00:08:15.821Z,87.56
2018-03-31T00:10:44.299Z,87.82
2018-03-31T00:13:12.659Z,87.83
2018-03-31T00:15:41.007Z,87.92
2018-03-31T00:18:09.371Z,88.10
2018-03-31T00:20:37.733Z,87.87
2018-03-31T00:23:06.091Z,87.90
2018-03-31T00:25:34.444Z,87.78
2018-03-31T00:28:02.814Z,87.81
2018-03-31T00:30:31.978Z,87.90
2018-03-31T00:33:00.410Z,87.87
2018-03-31T00:35:29.559Z,87.97
2018-03-31T00:37:57.990Z,88.05
2018-03-31T00:40:26.375Z,88.08
2018-03-31T00:42:55.484Z,88.04
2018-03-31T00:45:23.829Z,87.91
2018-03-31T00:47:52.172Z,87.84
2018-03-31T00:50:20.511Z,87.74
2018-03-31T00:52:49.627Z,87.65
2018-03-31T00:55:18.015Z,87.73
2018-03-31T00:57:46.374Z,87.51
2018-03-31T01:00:15.512Z,87.50
2018-03-31T01:02:43.874Z,87.58
2018-03-31T01:05:12.246Z,87.69
2018-03-31T01:07:40.685Z,87.86
2018-03-31T01:10:10.015Z,87.95
2018-03-31T01:12:39.131Z,88.12
2018-03-31T01:15:07.485Z,88.34
2018-03-31T01:17:35.862Z,88.49
2018-03-31T01:20:04.214Z,88.52
2018-03-31T01:22:33.349Z,88.33
2018-03-31T01:25:01.670Z,88.46
2018-03-31T01:27:30.054Z,88.54
2018-03-31T01:29:58.386Z,88.52
2018-03-31T01:32:26.808Z,88.43
2018-03-31T01:34:55.219Z,88.35
2018-03-31T01:37:23.590Z,88.25
2018-03-31T01:39:51.960Z,88.39
2018-03-31T01:42:20.341Z,88.47
2018-03-31T01:44:49.456Z,88.47
2018-03-31T01:47:17.813Z,88.49
2018-03-31T01:49:46.184Z,88.53
2018-03-31T01:52:15.291Z,88.52
2018-03-31T01:54:43.685Z,88.44
2018-03-31T01:57:12.019Z,88.40
2018-03-31T01:59:41.187Z,88.37
2018-03-31T02:02:09.495Z,88.37
2018-03-31T02:04:38.631Z,88.31
2018-03-31T02:07:06.983Z,88.32
2018-03-31T02:09:36.100Z,88.37
2018-03-31T02:12:04.441Z,88.40
2018-03-31T02:14:33.560Z,88.18
2018-03-31T02:17:01.936Z,88.18
2018-03-31T02:19:31.057Z,88.24
2018-03-31T02:21:59.402Z,88.26
2018-03-31T02:24:28.535Z,88.40
2018-03-31T02:26:56.874Z,88.55
2018-03-31T02:29:25.317Z,88.73
2018-03-31T02:31:53.686Z,88.95
2018-03-31T02:34:22.055Z,89.03
2018-03-31T02:36:50.411Z,89.03
2018-03-31T02:39:18.778Z,88.98
2018-03-31T02:41:47.172Z,89.12
2018-03-31T02:44:15.535Z,89.04
2018-03-31T02:46:43.882Z,89.05
2018-03-31T02:49:13.037Z,89.14
2018-03-31T02:51:41.389Z,89.26
2018-03-31T02:54:09.775Z,89.46
2018-03-31T02:56:38.142Z,89.55
2018-03-31T02:59:06.507Z,89.36
2018-03-31T03:01:34.916Z,89.20
2018-03-31T03:04:03.259Z,89.21
2018-03-31T03:06:32.380Z,89.24
2018-03-31T03:09:00.758Z,89.39
2018-03-31T03:11:29.117Z,89.29
2018-03-31T03:13:57.463Z,89.22
2018-03-31T03:16:25.826Z,89.15
2018-03-31T03:18:54.274Z,89.13
2018-03-31T03:21:22.639Z,89.30
2018-03-31T03:23:50.992Z,89.43
2018-03-31T03:26:20.122Z,89.42
2018-03-31T03:28:48.472Z,89.66
2018-03-31T03:31:17.604Z,89.62
2018-03-31T03:33:45.959Z,89.69
2018-03-31T03:36:14.324Z,89.76
2018-03-31T03:38:43.452Z,89.80
2018-03-31T03:41:11.830Z,89.87
2018-03-31T03:43:40.195Z,90.26
2018-03-31T03:46:08.569Z,90.28
2018-03-31T03:48:36.919Z,90.37
2018-03-31T03:51:06.046Z,90.37
2018-03-31T03:53:34.666Z,90.11
2018-03-31T03:56:03.031Z,90.20
2018-03-31T03:58:31.379Z,90.14
2018-03-31T04:00:59.729Z,90.14
2018-03-31T04:03:28.844Z,90.13
2018-03-31T04:05:57.189Z,90.10
2018-03-31T04:08:25.555Z,90.06
2018-03-31T04:10:53.940Z,89.97
2018-03-31T04:13:22.468Z,89.68
2018-03-31T04:15:50.804Z,89.46
2018-03-31T04:18:19.186Z,89.42
2018-03-31T04:20:47.559Z,89.29
2018-03-31T04:23:16.706Z,89.35
2018-03-31T04:25:45.063Z,89.49
2018-03-31T04:28:13.420Z,89.36
2018-03-31T04:30:42.556Z,89.49
2018-03-31T04:33:10.895Z,89.45
2018-03-31T04:35:40.038Z,89.45
2018-03-31T04:38:08.387Z,89.56
2018-03-31T04:40:36.742Z,89.28
2018-03-31T04:43:05.892Z,89.56
2018-03-31T04:45:34.252Z,89.54
2018-03-31T04:48:02.622Z,89.51
2018-03-31T04:50:31.026Z,89.64
2018-03-31T04:52:59.413Z,89.80
2018-03-31T04:55:27.767Z,89.92
2018-03-31T04:57:56.120Z,89.97
2018-03-31T05:00:25.251Z,90.00
2018-03-31T05:02:53.588Z,89.91
2018-03-31T05:05:22.711Z,90.04
2018-03-31T05:07:51.070Z,89.99
2018-03-31T05:10:20.199Z,90.06
2018-03-31T05:12:48.579Z,89.99
2018-03-31T05:15:16.962Z,90.01
2018-03-31T05:17:45.324Z,90.08
2018-03-31T05:20:14.535Z,90.27
2018-03-31T05:22:42.968Z,90.56
2018-03-31T05:25:11.324Z,90.55
2018-03-31T05:27:40.757Z,90.84
2018-03-31T05:30:09.876Z,90.82
2018-03-31T05:32:38.233Z,90.96
2018-03-31T05:35:07.344Z,90.89
2018-03-31T05:37:35.729Z,91.25
2018-03-31T05:40:04.091Z,91.22
2018-03-31T05:42:32.474Z,91.23
2018-03-31T05:45:00.842Z,91.05
2018-03-31T05:47:29.238Z,91.05
2018-03-31T05:49:57.595Z,91.17
2018-03-31T05:52:25.978Z,91.09
2018-03-31T05:54:54.349Z,91.02
2018-03-31T05:57:23.489Z,90.93
2018-03-31T05:59:51.846Z,90.88
2018-03-31T06:02:20.219Z,90.81
2018-03-31T06:04:48.598Z,90.77
2018-03-31T06:07:16.982Z,90.97
2018-03-31T06:09:45.346Z,91.02
2018-03-31T06:12:13.848Z,91.10
2018-03-31T06:14:42.203Z,91.18
2018-03-31T06:17:10.551Z,91.45
2018-03-31T06:19:40.472Z,91.54
2018-03-31T06:22:10.540Z,91.25
2018-03-31T06:24:38.940Z,91.08
2018-03-31T06:27:07.289Z,90.88
2018-03-31T06:29:35.690Z,90.73
2018-03-31T06:32:04.035Z,90.63
2018-03-31T06:34:32.408Z,90.46
2018-03-31T06:37:00.755Z,90.54
2018-03-31T06:39:29.873Z,90.55
2018-03-31T06:41:58.252Z,90.55
2018-03-31T06:44:26.725Z,90.51
2018-03-31T06:46:55.071Z,90.43
2018-03-31T06:49:23.392Z,90.15
2018-03-31T06:51:51.784Z,89.93
2018-03-31T06:54:20.139Z,89.73
2018-03-31T06:56:48.516Z,89.74
2018-03-31T06:59:16.886Z,89.53
2018-03-31T07:01:46.011Z,89.33
2018-03-31T07:04:14.399Z,89.57
2018-03-31T07:06:42.818Z,89.30
2018-03-31T07:09:11.171Z,89.43
2018-03-31T07:11:39.535Z,89.20
2018-03-31T07:14:07.891Z,89.04
2018-03-31T07:16:36.269Z,88.89
2018-03-31T07:19:04.635Z,88.55
2018-03-31T07:21:33.018Z,88.24
2018-03-31T07:26:35.867Z,87.62
2018-03-31T07:29:04.227Z,87.42
2018-03-31T07:31:32.624Z,87.39
2018-03-31T07:34:01.266Z,87.32
2018-03-31T07:36:29.654Z,86.92
2018-03-31T07:38:58.193Z,86.19
2018-03-31T07:41:27.398Z,85.88
2018-03-31T07:43:56.531Z,85.57
2018-03-31T07:46:24.904Z,85.32
2018-03-31T07:48:54.095Z,84.69
2018-03-31T07:51:22.439Z,84.72
2018-03-31T07:53:51.581Z,84.77
2018-03-31T07:56:19.946Z,84.21
2018-03-31T07:58:48.307Z,84.24
2018-03-31T08:01:16.676Z,84.14
2018-03-31T08:03:45.095Z,83.67
2018-03-31T08:06:13.450Z,83.21
2018-03-31T08:08:41.808Z,82.75
2018-03-31T08:11:10.150Z,82.56
2018-03-31T08:13:38.523Z,81.72
2018-03-31T08:16:06.884Z,81.52
2018-03-31T08:18:35.291Z,80.97
2018-03-31T08:21:03.711Z,81.26
2018-03-31T08:23:32.076Z,81.36
2018-03-31T08:26:00.441Z,81.46
2018-03-31T08:28:29.604Z,80.52
2018-03-31T08:30:57.936Z,80.31
2018-03-31T08:33:26.307Z,79.98
2018-03-31T08:35:55.423Z,79.81
2018-03-31T08:38:23.815Z,79.17
2018-03-31T08:40:52.175Z,77.44
2018-03-31T08:43:20.524Z,76.18
2018-03-31T08:45:48.925Z,74.11
2018-03-31T08:48:17.575Z,70.57
2018-03-31T08:50:46.739Z,70.25
2018-03-31T08:53:15.846Z,69.43
2018-03-31T08:55:44.211Z,70.41
2018-03-31T08:58:12.602Z,71.91
2018-03-31T09:00:40.968Z,71.53
2018-03-31T09:03:09.329Z,70.80
2018-03-31T09:05:37.695Z,67.84
2018-03-31T09:08:07.015Z,67.11
2018-03-31T09:10:35.420Z,63.02
2018-03-31T09:13:03.823Z,61.37
2018-03-31T09:15:32.993Z,65.16
2018-03-31T09:18:01.355Z,66.72
2018-03-31T09:20:29.728Z,69.73
2018-03-31T09:22:58.107Z,68.22
2018-03-31T09:25:26.471Z,67.83
2018-03-31T09:27:54.858Z,67.06
2018-03-31T09:30:23.216Z,68.46
2018-03-31T09:32:51.745Z,68.19
2018-03-31T09:35:20.083Z,67.98
2018-03-31T09:37:48.461Z,69.81
2018-03-31T09:40:16.785Z,65.82
2018-03-31T09:42:45.903Z,64.55
2018-03-31T09:45:14.303Z,66.44
2018-03-31T09:47:42.699Z,66.78
2018-03-31T09:50:11.067Z,65.32
2018-03-31T09:52:39.460Z,65.36
2018-03-31T09:55:07.862Z,61.63
2018-03-31T09:57:37.001Z,61.82
2018-03-31T10:00:05.378Z,60.66
2018-03-31T10:02:33.717Z,58.26
2018-03-31T10:05:02.100Z,60.83
2018-03-31T10:07:30.449Z,58.95
2018-03-31T10:09:58.909Z,58.35
2018-03-31T10:12:27.239Z,57.83
2018-03-31T10:14:55.581Z,59.00
2018-03-31T10:17:23.976Z,58.30
2018-03-31T10:19:52.336Z,60.27
2018-03-31T10:22:20.694Z,60.09
2018-03-31T10:24:49.076Z,56.94
2018-03-31T10:27:17.459Z,59.72
2018-03-31T10:29:45.826Z,57.85
2018-03-31T10:32:14.174Z,59.06
2018-03-31T10:34:43.294Z,57.21
2018-03-31T10:37:11.671Z,57.10
2018-03-31T10:39:40.134Z,57.57
2018-03-31T10:42:09.337Z,56.98
2018-03-31T10:44:37.698Z,56.60
2018-03-31T10:47:06.871Z,57.33
2018-03-31T10:49:35.238Z,56.02
2018-03-31T10:52:03.616Z,57.47
2018-03-31T10:54:31.986Z,58.38
2018-03-31T10:57:00.342Z,56.37
2018-03-31T10:59:28.708Z,57.16
2018-03-31T11:01:57.091Z,55.96
2018-03-31T11:04:25.483Z,55.69
2018-03-31T11:06:53.860Z,56.21
2018-03-31T11:09:22.222Z,56.90
2018-03-31T11:11:50.599Z,56.61
2018-03-31T11:14:18.973Z,55.63
2018-03-31T11:16:47.364Z,55.51
2018-03-31T11:19:15.754Z,54.15
2018-03-31T11:21:44.187Z,55.59
2018-03-31T11:24:12.535Z,54.68
2018-03-31T11:26:40.936Z,53.50
2018-03-31T11:29:10.072Z,56.76
2018-03-31T11:31:38.441Z,55.35
2018-03-31T11:34:06.820Z,52.85
2018-03-31T11:36:35.200Z,52.66
2018-03-31T11:39:03.569Z,53.45
2018-03-31T11:41:31.947Z,52.37
2018-03-31T11:44:00.343Z,53.01
2018-03-31T11:46:28.712Z,51.78
2018-03-31T11:48:57.107Z,52.68
2018-03-31T11:51:25.489Z,53.02
2018-03-31T11:53:53.858Z,51.66
2018-03-31T11:56:22.239Z,51.11
2018-03-31T11:58:50.629Z,53.21
2018-03-31T12:01:19.020Z,51.12
2018-03-31T12:03:47.380Z,50.93
2018-03-31T12:06:15.752Z,51.53
2018-03-31T12:08:44.101Z,51.70
2018-03-31T12:11:13.242Z,52.54
2018-03-31T12:13:41.596Z,54.28
2018-03-31T12:16:09.963Z,52.26
2018-03-31T12:18:38.315Z,53.75
2018-03-31T12:21:07.953Z,50.30
2018-03-31T12:23:36.271Z,50.39
2018-03-31T12:26:04.681Z,48.89
2018-03-31T12:28:33.799Z,49.64
2018-03-31T12:31:02.186Z,50.54
2018-03-31T12:33:30.562Z,50.53
2018-03-31T12:35:58.933Z,51.68
2018-03-31T12:38:27.330Z,53.36
2018-03-31T12:40:55.732Z,51.09
2018-03-31T12:43:24.079Z,50.69
2018-03-31T12:45:52.455Z,50.46
2018-03-31T12:48:20.834Z,51.04
2018-03-31T12:50:49.170Z,51.22
2018-03-31T12:53:18.320Z,50.42
2018-03-31T12:55:46.690Z,50.78
2018-03-31T12:58:15.079Z,49.51
2018-03-31T13:00:43.551Z,50.19
2018-03-31T13:03:11.930Z,48.98
2018-03-31T13:05:40.308Z,48.90
2018-03-31T13:08:08.691Z,50.00
2018-03-31T13:10:37.054Z,48.90
2018-03-31T13:13:05.448Z,50.06
2018-03-31T13:15:33.842Z,50.17
2018-03-31T13:18:02.219Z,48.74
2018-03-31T13:20:30.601Z,50.15
2018-03-31T13:22:58.949Z,49.73
2018-03-31T13:25:27.308Z,49.46
2018-03-31T13:27:55.674Z,47.44
2018-03-31T13:30:24.085Z,48.59
2018-03-31T13:32:53.269Z,47.75
2018-03-31T13:35:21.648Z,47.82
2018-03-31T13:37:50.015Z,49.77
2018-03-31T13:40:18.434Z,48.43
2018-03-31T13:42:46.806Z,48.05
2018-03-31T13:45:15.254Z,48.79
2018-03-31T13:47:43.607Z,48.32
2018-03-31T13:50:12.746Z,46.77
2018-03-31T13:52:41.138Z,49.79
2018-03-31T13:55:09.511Z,46.72
2018-03-31T13:57:38.622Z,46.65
2018-03-31T14:00:07.007Z,48.70
2018-03-31T14:02:35.427Z,47.78
2018-03-31T14:05:03.775Z,46.88
2018-03-31T14:07:32.907Z,48.93
2018-03-31T14:10:01.337Z,48.36
2018-03-31T14:12:29.941Z,48.68
2018-03-31T14:14:59.109Z,50.86
2018-03-31T14:17:27.492Z,50.93
2018-03-31T14:19:55.851Z,49.75
2018-03-31T14:22:24.302Z,49.88
2018-03-31T14:24:52.781Z,50.66
2018-03-31T14:27:21.161Z,50.90
2018-03-31T14:29:49.550Z,51.28
2018-03-31T14:32:17.926Z,51.35
2018-03-31T14:34:46.398Z,50.39
2018-03-31T14:37:14.952Z,51.08
2018-03-31T14:39:44.115Z,51.40
2018-03-31T14:42:12.503Z,49.25
2018-03-31T14:44:40.843Z,49.35
2018-03-31T14:47:09.254Z,48.44
2018-03-31T14:49:37.635Z,47.08
2018-03-31T14:52:06.007Z,48.15
2018-03-31T14:54:34.390Z,48.91
2018-03-31T14:57:02.908Z,49.16
2018-03-31T14:59:31.269Z,48.24
2018-03-31T15:02:00.440Z,49.24
2018-03-31T15:04:30.314Z,48.60
2018-03-31T15:06:58.839Z,50.99
2018-03-31T15:09:27.182Z,50.38
2018-03-31T15:11:55.534Z,49.67
2018-03-31T15:14:23.939Z,49.44
2018-03-31T15:16:52.306Z,48.71
2018-03-31T15:19:20.711Z,49.33
2018-03-31T15:21:49.175Z,50.13
2018-03-31T15:24:17.514Z,51.92
2018-03-31T15:26:45.883Z,51.21
2018-03-31T15:29:14.282Z,50.91
2018-03-31T15:31:43.399Z,49.71
2018-03-31T15:34:11.825Z,48.75
2018-03-31T15:36:41.051Z,49.09
2018-03-31T15:39:09.551Z,49.58
2018-03-31T15:41:37.995Z,48.04
2018-03-31T15:44:07.332Z,49.00
2018-03-31T15:46:36.512Z,49.54
2018-03-31T15:49:05.651Z,50.18
2018-03-31T15:51:34.963Z,49.11
2018-03-31T15:54:03.355Z,49.57
2018-03-31T15:56:32.489Z,50.50
2018-03-31T15:59:00.851Z,50.25
2018-03-31T16:01:29.988Z,50.44
2018-03-31T16:03:58.399Z,50.26
2018-03-31T16:06:26.746Z,51.05
2018-03-31T16:08:55.147Z,51.52
2018-03-31T16:11:23.532Z,51.20
2018-03-31T16:13:52.679Z,51.88
2018-03-31T16:16:22.113Z,52.51
2018-03-31T16:18:50.483Z,52.60
2018-03-31T16:21:18.875Z,53.79
2018-03-31T16:23:47.182Z,51.04
2018-03-31T16:26:15.595Z,50.15
2018-03-31T16:28:43.964Z,51.05
2018-03-31T16:31:12.340Z,50.64
2018-03-31T16:33:40.694Z,50.56
2018-03-31T16:36:09.893Z,51.15
2018-03-31T16:38:39.014Z,50.34
2018-03-31T16:41:07.399Z,50.95
2018-03-31T16:43:35.791Z,51.02
2018-03-31T16:46:04.179Z,51.49
2018-03-31T16:48:32.584Z,50.99
2018-03-31T16:51:00.945Z,52.09
2018-03-31T16:53:29.326Z,52.07
2018-03-31T16:55:57.772Z,52.31
2018-03-31T16:58:26.232Z,51.66
2018-03-31T17:00:54.674Z,52.15
2018-03-31T17:03:23.062Z,52.59
2018-03-31T17:05:52.236Z,52.75
2018-03-31T17:08:23.639Z,52.32
2018-03-31T17:10:52.052Z,52.68
2018-03-31T17:13:20.467Z,52.61
2018-03-31T17:15:49.599Z,53.25
2018-03-31T17:18:17.981Z,53.41
2018-03-31T17:20:46.359Z,53.64
2018-03-31T17:23:14.743Z,53.97
2018-03-31T17:25:43.115Z,53.13
2018-03-31T17:28:11.497Z,53.26
2018-03-31T17:30:39.926Z,53.15
2018-03-31T17:33:08.306Z,53.31
2018-03-31T17:35:36.723Z,53.92
2018-03-31T17:38:05.123Z,54.22
2018-03-31T17:40:33.576Z,54.01
2018-03-31T17:43:02.002Z,54.45
2018-03-31T17:45:30.402Z,54.90
2018-03-31T17:47:59.542Z,54.83
2018-03-31T17:50:27.921Z,54.44
2018-03-31T17:52:56.359Z,55.17
2018-03-31T17:55:25.601Z,55.18
2018-03-31T17:57:53.970Z,54.92
2018-03-31T18:00:22.342Z,55.86
2018-03-31T18:02:50.711Z,56.88
2018-03-31T18:05:19.106Z,58.03
2018-03-31T18:07:47.552Z,58.83
2018-03-31T18:10:15.974Z,59.30
2018-03-31T18:12:44.343Z,60.15
2018-03-31T18:15:12.712Z,60.64
2018-03-31T18:17:41.080Z,61.19
2018-03-31T18:20:09.458Z,61.63
2018-03-31T18:22:39.523Z,62.05
2018-03-31T18:25:07.896Z,62.53
2018-03-31T18:27:36.275Z,62.86
2018-03-31T18:30:04.693Z,62.89
2018-03-31T18:32:33.858Z,63.31
2018-03-31T18:35:02.222Z,63.60
2018-03-31T18:37:30.746Z,64.05
2018-03-31T18:39:59.871Z,64.37
2018-03-31T18:42:28.277Z,64.83
2018-03-31T18:44:56.635Z,64.70
2018-03-31T18:47:25.760Z,65.76
2018-03-31T18:49:54.114Z,69.82
2018-03-31T18:52:22.685Z,71.21
2018-03-31T18:54:51.774Z,71.82
2018-03-31T18:57:20.148Z,71.95
2018-03-31T18:59:48.520Z,72.15
2018-03-31T19:02:16.894Z,72.28
2018-03-31T19:04:46.039Z,72.36
2018-03-31T19:07:14.476Z,73.12
2018-03-31T19:09:43.647Z,73.70
2018-03-31T19:12:12.804Z,74.22
2018-03-31T19:14:42.981Z,74.57
2018-03-31T19:17:16.330Z,74.43
2018-03-31T19:19:44.739Z,74.57
2018-03-31T19:22:13.129Z,74.35
2018-03-31T19:24:47.034Z,74.46
2018-03-31T19:27:15.400Z,74.56
2018-03-31T19:29:43.780Z,74.93
2018-03-31T19:32:12.143Z,74.88
2018-03-31T19:34:40.506Z,75.12
2018-03-31T19:37:08.883Z,75.30
2018-03-31T19:39:42.851Z,75.45
2018-03-31T19:42:11.252Z,75.77
2018-03-31T19:44:39.627Z,76.09
2018-03-31T19:47:08.018Z,76.15
2018-03-31T19:49:36.566Z,76.46
2018-03-31T19:52:04.942Z,76.73
2018-03-31T19:54:33.308Z,77.06
2018-03-31T19:57:01.772Z,77.42
2018-03-31T19:59:30.141Z,77.48
2018-03-31T20:01:58.498Z,77.66
2018-03-31T20:04:26.887Z,77.74
2018-03-31T20:06:55.247Z,78.22
2018-03-31T20:09:23.704Z,78.41
2018-03-31T20:11:52.063Z,78.75
2018-03-31T20:14:20.449Z,78.85
2018-03-31T20:16:48.820Z,79.10
2018-03-31T20:19:17.939Z,79.03
2018-03-31T20:21:46.588Z,78.99
2018-03-31T20:24:15.710Z,78.61
2018-03-31T20:26:44.086Z,78.38
2018-03-31T20:29:12.429Z,78.69
2018-03-31T20:31:41.578Z,78.84
2018-03-31T20:34:09.944Z,78.81
2018-03-31T20:36:38.321Z,78.49
2018-03-31T20:39:06.743Z,78.33
2018-03-31T20:41:35.156Z,78.15
2018-03-31T20:44:04.297Z,78.17
2018-03-31T20:46:32.648Z,77.93
2018-03-31T20:49:01.076Z,77.62
2018-03-31T20:51:29.497Z,77.30
2018-03-31T20:53:57.893Z,77.13
2018-03-31T20:56:26.254Z,77.27
2018-03-31T20:58:54.740Z,77.07
2018-03-31T21:01:23.144Z,76.82
2018-03-31T21:03:51.503Z,76.75
2018-03-31T21:06:19.902Z,76.79
2018-03-31T21:08:48.299Z,77.18
2018-03-31T21:11:16.673Z,77.87
2018-03-31T21:13:45.814Z,77.89
2018-03-31T21:16:14.187Z,77.91
2018-03-31T21:18:42.601Z,77.46
2018-03-31T21:21:10.936Z,76.92
2018-03-31T21:23:40.135Z,77.07
2018-03-31T21:26:09.303Z,77.79
2018-03-31T21:28:37.663Z,78.83
2018-03-31T21:31:06.110Z,79.23
2018-03-31T21:33:34.446Z,79.50
2018-03-31T21:36:02.820Z,80.08
2018-03-31T21:38:31.167Z,80.11
2018-03-31T21:40:59.581Z,80.04
2018-03-31T21:43:27.968Z,79.57
2018-03-31T21:45:56.331Z,79.63
2018-03-31T21:48:24.719Z,80.13
2018-03-31T21:50:53.079Z,80.08
2018-03-31T21:53:21.423Z,80.10
2018-03-31T21:55:49.783Z,80.83
2018-03-31T21:58:18.159Z,81.48
2018-03-31T22:00:46.590Z,82.48
2018-03-31T22:03:14.967Z,83.49
2018-03-31T22:05:43.334Z,84.55
2018-03-31T22:08:11.703Z,85.95
2018-03-31T22:10:40.077Z,86.29
2018-03-31T22:13:14.003Z,85.80
2018-03-31T22:15:47.899Z,86.82
2018-03-31T22:18:16.273Z,85.97
2018-03-31T22:20:44.614Z,86.26
2018-03-31T22:23:12.995Z,86.66
2018-03-31T22:25:41.385Z,86.71
2018-03-31T22:28:09.742Z,86.42
2018-03-31T22:30:38.098Z,86.59
2018-03-31T22:33:06.530Z,86.88
2018-03-31T22:35:34.938Z,86.93
2018-03-31T22:38:03.270Z,86.84
2018-03-31T22:40:32.383Z,86.57
2018-03-31T22:43:00.787Z,85.59
2018-03-31T22:45:29.903Z,85.77
2018-03-31T22:47:58.267Z,85.74
2018-03-31T22:50:26.644Z,85.85
2018-03-31T22:52:54.998Z,86.07
2018-03-31T22:55:23.383Z,86.19
2018-03-31T22:57:51.778Z,86.11
2018-03-31T23:00:20.142Z,86.49
2018-03-31T23:02:48.501Z,86.49
2018-03-31T23:05:16.876Z,86.15
2018-03-31T23:07:45.246Z,84.81
2018-03-31T23:10:13.614Z,85.20
2018-03-31T23:12:42.001Z,85.61
2018-03-31T23:15:10.383Z,85.48
2018-03-31T23:17:38.766Z,85.82
2018-03-31T23:20:07.138Z,86.33
2018-03-31T23:22:35.524Z,86.31
2018-03-31T23:25:03.911Z,85.77
2018-03-31T23:27:32.264Z,86.24
2018-03-31T23:30:00.631Z,86.20
2018-03-31T23:32:28.980Z,86.36
2018-03-31T23:34:57.338Z,86.51
2018-03-31T23:37:25.728Z,87.13
2018-03-31T23:39:54.068Z,86.88
2018-03-31T23:42:22.425Z,87.00
2018-03-31T23:44:50.774Z,87.18
2018-03-31T23:47:19.899Z,87.33
2018-03-31T23:49:48.257Z,87.24
2018-03-31T23:52:17.382Z,87.43
2018-03-31T23:54:45.742Z,87.37
2018-03-31T23:57:14.098Z,86.76
2018-03-31T23:59:42.450Z,86.42
